createdAt,value
2019-02-14T00:02:19.860Z,81.80
2019-02-14T00:04:46.829Z,81.80
2019-02-14T00:07:13.872Z,81.90
2019-02-14T00:09:40.988Z,81.70
2019-02-14T00:12:07.960Z,81.40
2019-02-14T00:14:34.907Z,81.40
2019-02-14T00:17:01.917Z,82.20
2019-02-14T00:19:28.857Z,81.50
2019-02-14T00:21:55.856Z,81.40
2019-02-14T00:24:26.032Z,81.40
2019-02-14T00:26:53.005Z,81.10
2019-02-14T00:29:19.965Z,81.00
2019-02-14T00:31:46.915Z,80.80
2019-02-14T00:34:13.861Z,80.60
2019-02-14T00:36:40.845Z,81.00
2019-02-14T00:39:07.795Z,80.80
2019-02-14T00:41:34.786Z,81.20
2019-02-14T00:44:01.736Z,80.70
2019-02-14T00:46:28.716Z,81.60
2019-02-14T00:48:55.689Z,81.80
2019-02-14T00:51:22.680Z,82.30
2019-02-14T00:53:49.627Z,82.00
2019-02-14T00:56:16.578Z,82.20
2019-02-14T00:58:43.557Z,83.00
2019-02-14T01:01:10.532Z,82.50
2019-02-14T01:03:37.484Z,82.20
2019-02-14T01:06:04.447Z,82.80
2019-02-14T01:08:31.388Z,83.00
2019-02-14T01:10:59.209Z,83.40
2019-02-14T01:13:26.176Z,83.40
2019-02-14T01:15:53.113Z,83.50
2019-02-14T01:18:20.127Z,83.40
2019-02-14T01:20:47.118Z,83.20
2019-02-14T01:23:14.089Z,83.20
2019-02-14T01:25:41.039Z,82.10
2019-02-14T01:28:08.034Z,83.00
2019-02-14T01:30:34.999Z,82.90
2019-02-14T01:33:01.945Z,82.90
2019-02-14T01:35:28.920Z,83.10
2019-02-14T01:37:55.870Z,83.20
2019-02-14T01:40:22.822Z,83.80
2019-02-14T01:42:49.841Z,82.10
2019-02-14T01:45:16.830Z,84.20
2019-02-14T01:47:43.804Z,83.90
2019-02-14T01:50:10.768Z,84.00
2019-02-14T01:52:37.728Z,84.00
2019-02-14T01:55:04.705Z,84.10
2019-02-14T01:57:31.680Z,84.20
2019-02-14T01:59:58.647Z,84.30
2019-02-14T02:02:25.644Z,84.20
2019-02-14T02:04:52.604Z,84.10
2019-02-14T02:07:19.529Z,83.90
2019-02-14T02:09:46.439Z,83.80
2019-02-14T02:12:13.660Z,83.50
2019-02-14T02:14:40.633Z,83.30
2019-02-14T02:17:07.564Z,82.80
2019-02-14T02:19:35.874Z,82.00
2019-02-14T02:22:02.780Z,81.80
2019-02-14T02:24:29.695Z,81.40
2019-02-14T02:26:56.636Z,81.20
2019-02-14T02:29:23.556Z,81.30
2019-02-14T02:31:50.496Z,82.30
2019-02-14T02:34:17.413Z,81.70
2019-02-14T02:36:44.322Z,81.30
2019-02-14T02:39:11.275Z,81.30
2019-02-14T02:41:38.218Z,82.10
2019-02-14T02:44:05.170Z,82.70
2019-02-14T02:46:32.092Z,83.10
2019-02-14T02:48:59.038Z,83.30
2019-02-14T02:51:25.951Z,83.60
2019-02-14T02:53:52.903Z,84.20
2019-02-14T02:56:19.842Z,84.00
2019-02-14T02:58:46.776Z,84.80
2019-02-14T03:01:13.692Z,84.50
2019-02-14T03:03:40.668Z,85.70
2019-02-14T03:06:10.706Z,85.00
2019-02-14T03:08:34.518Z,85.20
2019-02-14T03:11:01.467Z,85.40
2019-02-14T03:13:28.977Z,84.90
2019-02-14T03:15:55.896Z,84.80
2019-02-14T03:18:22.833Z,84.50
2019-02-14T03:20:49.755Z,84.40
2019-02-14T03:23:16.653Z,84.10
2019-02-14T03:25:43.572Z,84.20
2019-02-14T03:28:10.517Z,83.90
2019-02-14T03:30:37.451Z,84.00
2019-02-14T03:33:04.411Z,84.20
2019-02-14T03:35:31.341Z,84.50
2019-02-14T03:37:58.272Z,84.10
2019-02-14T03:40:25.200Z,84.90
2019-02-14T03:42:53.964Z,85.10
2019-02-14T03:45:19.084Z,85.10
2019-02-14T03:47:46.017Z,85.40
2019-02-14T03:50:12.971Z,85.70
2019-02-14T03:52:39.943Z,86.10
2019-02-14T03:55:07.099Z,86.20
2019-02-14T03:57:34.020Z,86.30
2019-02-14T04:00:00.949Z,86.50
2019-02-14T04:02:27.894Z,87.40
2019-02-14T04:04:54.808Z,86.50
2019-02-14T04:07:21.736Z,86.80
2019-02-14T04:09:48.692Z,87.00
2019-02-14T04:12:15.627Z,87.20
2019-02-14T04:14:42.752Z,88.30
2019-02-14T04:17:09.706Z,87.30
2019-02-14T04:19:36.629Z,87.70
2019-02-14T04:22:03.590Z,87.80
2019-02-14T04:24:30.557Z,87.70
2019-02-14T04:26:57.490Z,87.20
2019-02-14T04:29:24.442Z,87.20
2019-02-14T04:31:51.399Z,86.80
2019-02-14T04:34:18.364Z,86.60
2019-02-14T04:36:45.335Z,86.40
2019-02-14T04:39:12.288Z,86.50
2019-02-14T04:41:39.231Z,86.50
2019-02-14T04:44:06.175Z,86.90
2019-02-14T04:46:33.161Z,87.10
2019-02-14T04:49:00.123Z,87.30
2019-02-14T04:51:27.077Z,87.40
2019-02-14T04:53:54.062Z,86.20
2019-02-14T04:56:20.996Z,87.70
2019-02-14T04:58:47.948Z,87.80
2019-02-14T05:01:14.948Z,87.90
2019-02-14T05:03:41.893Z,87.80
2019-02-14T05:06:08.837Z,87.80
2019-02-14T05:08:35.799Z,88.70
2019-02-14T05:11:02.748Z,88.30
2019-02-14T05:13:29.716Z,88.10
2019-02-14T05:15:58.168Z,88.20
2019-02-14T05:18:25.261Z,87.80
2019-02-14T05:20:52.207Z,87.70
2019-02-14T05:23:19.170Z,87.80
2019-02-14T05:25:46.149Z,88.50
2019-02-14T05:28:13.098Z,88.00
2019-02-14T05:30:40.064Z,88.30
2019-02-14T05:33:07.037Z,88.60
2019-02-14T05:35:34.009Z,88.60
2019-02-14T05:38:01.000Z,88.60
2019-02-14T05:40:27.949Z,88.40
2019-02-14T05:42:54.903Z,88.60
2019-02-14T05:45:21.876Z,88.90
2019-02-14T05:47:48.822Z,89.00
2019-02-14T05:50:15.786Z,89.20
2019-02-14T05:52:42.752Z,89.00
2019-02-14T05:55:09.785Z,88.90
2019-02-14T05:57:36.879Z,88.70
2019-02-14T06:00:04.606Z,88.80
2019-02-14T06:02:32.241Z,89.20
2019-02-14T06:04:58.523Z,89.30
2019-02-14T06:07:25.470Z,89.60
2019-02-14T06:09:52.444Z,89.00
2019-02-14T06:12:19.375Z,89.20
2019-02-14T06:14:46.375Z,89.50
2019-02-14T06:17:13.925Z,89.30
2019-02-14T06:19:40.902Z,89.30
2019-02-14T06:22:07.933Z,89.40
2019-02-14T06:24:34.881Z,89.40
2019-02-14T06:27:01.854Z,90.00
2019-02-14T06:29:28.844Z,89.80
2019-02-14T06:31:55.783Z,89.80
2019-02-14T06:34:22.732Z,90.00
2019-02-14T06:36:49.707Z,90.00
2019-02-14T06:39:16.657Z,89.90
2019-02-14T06:41:43.605Z,89.50
2019-02-14T06:44:10.593Z,89.60
2019-02-14T06:46:37.524Z,90.10
2019-02-14T06:49:04.469Z,89.20
2019-02-14T06:51:31.441Z,89.50
2019-02-14T06:53:58.512Z,89.50
2019-02-14T06:56:25.538Z,89.90
2019-02-14T06:58:52.515Z,90.00
2019-02-14T07:01:19.452Z,90.00
2019-02-14T07:03:46.438Z,90.00
2019-02-14T07:06:13.433Z,90.00
2019-02-14T07:08:40.399Z,90.00
2019-02-14T07:11:07.366Z,90.00
2019-02-14T07:13:34.359Z,89.50
2019-02-14T07:16:01.332Z,89.50
2019-02-14T07:18:28.788Z,89.10
2019-02-14T07:20:55.776Z,89.00
2019-02-14T07:23:22.760Z,89.00
2019-02-14T07:25:49.733Z,89.10
2019-02-14T07:28:16.697Z,89.20
2019-02-14T07:30:43.725Z,88.80
2019-02-14T07:33:10.638Z,88.60
2019-02-14T07:35:37.593Z,88.70
2019-02-14T07:38:04.534Z,88.40
2019-02-14T07:40:31.480Z,88.60
2019-02-14T07:42:58.449Z,88.40
2019-02-14T07:45:25.396Z,88.10
2019-02-14T07:47:52.371Z,87.50
2019-02-14T07:50:19.409Z,86.60
2019-02-14T07:52:46.358Z,86.10
2019-02-14T07:55:13.416Z,84.70
2019-02-14T07:57:40.329Z,84.20
2019-02-14T08:00:09.731Z,83.20
2019-02-14T08:02:36.689Z,82.20
2019-02-14T08:05:03.872Z,81.00
2019-02-14T08:07:36.021Z,80.40
2019-02-14T08:09:57.772Z,79.40
2019-02-14T08:12:24.756Z,78.30
2019-02-14T08:14:51.709Z,77.60
2019-02-14T08:17:18.668Z,76.90
2019-02-14T08:19:45.824Z,76.20
2019-02-14T08:22:12.776Z,75.70
2019-02-14T08:24:39.721Z,74.80
2019-02-14T08:27:06.733Z,74.00
2019-02-14T08:29:33.712Z,73.70
2019-02-14T08:32:00.671Z,72.90
2019-02-14T08:34:27.615Z,71.90
2019-02-14T08:36:54.592Z,70.20
2019-02-14T08:39:21.576Z,69.10
2019-02-14T08:41:48.554Z,70.20
2019-02-14T08:44:15.509Z,69.40
2019-02-14T08:46:42.467Z,67.60
2019-02-14T08:49:09.500Z,66.60
2019-02-14T08:51:36.510Z,65.60
2019-02-14T08:54:03.443Z,63.80
2019-02-14T08:56:30.496Z,62.70
2019-02-14T08:58:57.457Z,62.00
2019-02-14T09:01:24.415Z,61.00
2019-02-14T09:03:51.382Z,58.50
2019-02-14T09:06:18.335Z,57.40
2019-02-14T09:08:45.344Z,56.10
2019-02-14T09:11:12.296Z,53.10
2019-02-14T09:13:39.275Z,50.00
2019-02-14T09:16:06.230Z,47.60
2019-02-14T09:18:33.192Z,45.40
2019-02-14T09:21:01.516Z,42.00
2019-02-14T09:23:28.514Z,39.10
2019-02-14T09:25:55.435Z,37.70
2019-02-14T09:28:22.406Z,37.00
2019-02-14T09:30:49.356Z,33.90
2019-02-14T09:33:16.323Z,33.10
2019-02-14T09:35:43.281Z,32.40
2019-02-14T09:38:10.241Z,32.80
2019-02-14T09:40:37.222Z,34.60
2019-02-14T09:43:04.178Z,35.50
2019-02-14T09:45:31.137Z,37.20
2019-02-14T09:47:58.120Z,35.70
2019-02-14T09:50:25.079Z,35.00
2019-02-14T09:52:52.032Z,32.50
2019-02-14T09:55:19.036Z,29.60
2019-02-14T09:57:45.991Z,29.70
2019-02-14T10:00:14.016Z,28.20
2019-02-14T10:02:40.969Z,28.00
2019-02-14T10:05:08.286Z,28.00
2019-02-14T10:07:35.272Z,26.70
2019-02-14T10:10:02.315Z,26.50
2019-02-14T10:12:29.308Z,26.30
2019-02-14T10:14:56.278Z,27.00
2019-02-14T10:17:23.286Z,26.10
2019-02-14T10:19:50.205Z,25.80
2019-02-14T10:22:17.460Z,24.80
2019-02-14T10:24:45.073Z,24.50
2019-02-14T10:27:11.954Z,24.60
2019-02-14T10:29:38.882Z,23.80
2019-02-14T10:32:05.836Z,23.50
2019-02-14T10:34:32.865Z,22.80
2019-02-14T10:36:59.846Z,22.50
2019-02-14T10:39:26.820Z,22.20
2019-02-14T10:41:53.805Z,22.50
2019-02-14T10:44:20.769Z,20.90
2019-02-14T10:46:47.892Z,21.40
2019-02-14T10:49:14.859Z,21.40
2019-02-14T10:51:41.802Z,21.10
2019-02-14T10:54:08.780Z,21.70
2019-02-14T10:56:35.720Z,21.70
2019-02-14T10:59:02.667Z,21.90
2019-02-14T11:01:29.636Z,22.60
2019-02-14T11:03:56.598Z,22.50
2019-02-14T11:06:23.587Z,23.00
2019-02-14T11:08:50.554Z,23.50
2019-02-14T11:11:17.484Z,24.30
2019-02-14T11:13:44.429Z,24.60
2019-02-14T11:16:11.407Z,23.70
2019-02-14T11:18:44.217Z,23.50
2019-02-14T11:21:05.368Z,22.90
2019-02-14T11:23:33.581Z,22.70
2019-02-14T11:26:00.520Z,21.00
2019-02-14T11:28:27.468Z,20.80
2019-02-14T11:30:54.475Z,19.80
2019-02-14T11:33:21.494Z,19.50
2019-02-14T11:35:48.448Z,18.70
2019-02-14T11:38:15.907Z,19.30
2019-02-14T11:40:42.955Z,19.90
2019-02-14T11:43:09.944Z,20.10
2019-02-14T11:45:36.929Z,21.20
2019-02-14T11:48:03.871Z,22.10
2019-02-14T11:50:31.025Z,22.90
2019-02-14T11:52:57.982Z,23.60
2019-02-14T11:55:24.924Z,23.90
2019-02-14T11:57:51.893Z,24.10
2019-02-14T12:00:20.826Z,23.50
2019-02-14T12:02:55.168Z,23.60
2019-02-14T12:05:14.796Z,23.40
2019-02-14T12:07:41.761Z,23.10
2019-02-14T12:10:13.546Z,22.50
2019-02-14T12:12:35.800Z,22.00
2019-02-14T12:15:03.069Z,22.20
2019-02-14T12:17:30.009Z,21.60
2019-02-14T12:19:56.965Z,21.70
2019-02-14T12:22:23.953Z,22.00
2019-02-14T12:24:52.231Z,21.50
2019-02-14T12:27:19.205Z,21.30
2019-02-14T12:29:46.198Z,20.70
2019-02-14T12:32:13.136Z,21.50
2019-02-14T12:34:40.087Z,21.20
2019-02-14T12:37:07.049Z,20.80
2019-02-14T12:39:34.000Z,21.10
2019-02-14T12:42:00.936Z,20.40
2019-02-14T12:44:27.904Z,20.90
2019-02-14T12:46:54.844Z,21.20
2019-02-14T12:49:21.776Z,20.10
2019-02-14T12:51:48.834Z,22.20
2019-02-14T12:54:15.779Z,23.20
2019-02-14T12:56:42.748Z,24.10
2019-02-14T12:59:09.742Z,24.50
2019-02-14T13:01:36.673Z,25.20
2019-02-14T13:04:03.627Z,26.20
2019-02-14T13:06:30.588Z,26.30
2019-02-14T13:08:57.541Z,26.90
2019-02-14T13:11:24.524Z,27.10
2019-02-14T13:13:51.483Z,27.30
2019-02-14T13:16:18.417Z,27.00
2019-02-14T13:18:45.366Z,27.70
2019-02-14T13:21:15.699Z,27.10
2019-02-14T13:23:44.528Z,26.70
2019-02-14T13:26:13.473Z,26.40
2019-02-14T13:28:41.458Z,26.90
2019-02-14T13:31:16.298Z,27.70
2019-02-14T13:33:43.236Z,25.80
2019-02-14T13:36:10.400Z,26.90
2019-02-14T13:38:37.666Z,27.80
2019-02-14T13:41:04.893Z,28.70
2019-02-14T13:43:32.142Z,29.70
2019-02-14T13:45:59.099Z,29.10
2019-02-14T13:48:26.065Z,29.20
2019-02-14T13:50:53.076Z,29.40
2019-02-14T13:53:20.054Z,29.00
2019-02-14T13:55:47.016Z,29.40
2019-02-14T13:58:13.953Z,29.40
2019-02-14T14:00:40.890Z,30.30
2019-02-14T14:03:07.867Z,34.00
2019-02-14T14:05:34.859Z,36.30
2019-02-14T14:08:02.228Z,37.90
2019-02-14T14:10:29.172Z,38.40
2019-02-14T14:12:56.101Z,38.70
2019-02-14T14:15:23.073Z,39.50
2019-02-14T14:17:50.039Z,38.70
2019-02-14T14:20:17.451Z,38.50
2019-02-14T14:22:44.523Z,38.50
2019-02-14T14:25:11.788Z,37.40
2019-02-14T14:27:39.018Z,39.40
2019-02-14T14:30:06.925Z,38.00
2019-02-14T14:32:34.006Z,35.30
2019-02-14T14:35:00.941Z,34.70
2019-02-14T14:37:27.872Z,33.60
2019-02-14T14:39:55.822Z,32.60
2019-02-14T14:42:40.725Z,31.50
2019-02-14T14:45:08.862Z,33.40
2019-02-14T14:47:35.835Z,33.30
2019-02-14T14:50:02.888Z,33.70
2019-02-14T14:52:29.867Z,33.80
2019-02-14T14:54:56.800Z,34.90
2019-02-14T14:57:23.809Z,35.30
2019-02-14T14:59:50.791Z,35.70
2019-02-14T15:02:17.773Z,36.80
2019-02-14T15:04:44.769Z,36.10
2019-02-14T15:07:11.745Z,36.90
2019-02-14T15:09:38.717Z,37.40
2019-02-14T15:12:06.056Z,34.60
2019-02-14T15:14:32.993Z,35.10
2019-02-14T15:16:59.981Z,34.90
2019-02-14T15:19:26.987Z,35.50
2019-02-14T15:21:53.940Z,36.20
2019-02-14T15:24:20.865Z,38.10
2019-02-14T15:26:47.824Z,39.20
2019-02-14T15:29:16.150Z,39.10
2019-02-14T15:31:43.100Z,39.80
2019-02-14T15:34:10.065Z,40.40
2019-02-14T15:36:37.043Z,40.30
2019-02-14T15:39:04.702Z,40.40
2019-02-14T15:41:31.644Z,40.60
2019-02-14T15:43:58.631Z,41.00
2019-02-14T15:46:25.805Z,42.30
2019-02-14T15:48:53.665Z,43.20
2019-02-14T15:51:20.665Z,44.60
2019-02-14T15:53:47.605Z,45.00
2019-02-14T15:56:14.565Z,42.70
2019-02-14T15:58:41.555Z,43.00
2019-02-14T16:01:08.533Z,43.20
2019-02-14T16:03:35.501Z,43.50
2019-02-14T16:06:04.532Z,44.60
2019-02-14T16:08:29.910Z,45.50
2019-02-14T16:10:56.923Z,46.20
2019-02-14T16:13:23.901Z,47.20
2019-02-14T16:15:50.859Z,47.80
2019-02-14T16:18:17.862Z,47.80
2019-02-14T16:20:44.845Z,47.80
2019-02-14T16:23:11.803Z,47.90
2019-02-14T16:25:38.760Z,47.80
2019-02-14T16:28:05.752Z,47.30
2019-02-14T16:30:35.117Z,47.20
2019-02-14T16:33:02.094Z,47.40
2019-02-14T16:35:29.160Z,47.70
2019-02-14T16:37:56.096Z,49.10
2019-02-14T16:40:27.761Z,49.10
2019-02-14T16:42:50.011Z,50.30
2019-02-14T16:45:17.018Z,50.10
2019-02-14T16:47:44.097Z,49.80
2019-02-14T16:50:11.100Z,50.30
2019-02-14T16:52:38.084Z,51.90
2019-02-14T16:55:05.062Z,51.90
2019-02-14T16:57:32.042Z,51.60
2019-02-14T16:59:58.969Z,52.10
2019-02-14T17:02:26.398Z,51.40
2019-02-14T17:04:53.474Z,53.10
2019-02-14T17:07:20.460Z,54.40
2019-02-14T17:09:47.408Z,54.90
2019-02-14T17:12:14.371Z,54.80
2019-02-14T17:14:41.323Z,55.30
2019-02-14T17:17:08.403Z,54.50
2019-02-14T17:19:35.373Z,52.90
2019-02-14T17:22:02.337Z,54.60
2019-02-14T17:24:29.275Z,56.70
2019-02-14T17:26:56.270Z,56.20
2019-02-14T17:29:23.308Z,55.70
2019-02-14T17:31:50.744Z,56.00
2019-02-14T17:34:17.955Z,54.90
2019-02-14T17:36:44.925Z,55.10
2019-02-14T17:39:11.894Z,55.00
2019-02-14T17:41:38.857Z,54.40
2019-02-14T17:44:17.227Z,56.20
2019-02-14T17:46:44.229Z,57.20
2019-02-14T17:49:11.169Z,56.60
2019-02-14T17:51:38.113Z,56.90
2019-02-14T17:54:05.269Z,55.80
2019-02-14T17:56:32.208Z,56.10
2019-02-14T17:59:00.377Z,55.70
2019-02-14T18:01:27.366Z,54.40
2019-02-14T18:03:54.303Z,55.80
2019-02-14T18:06:21.280Z,54.60
2019-02-14T18:08:48.651Z,54.50
2019-02-14T18:11:15.621Z,54.90
2019-02-14T18:13:42.577Z,56.10
2019-02-14T18:16:09.599Z,56.20
2019-02-14T18:18:36.571Z,56.70
2019-02-14T18:21:03.646Z,56.60
2019-02-14T18:23:30.616Z,56.90
2019-02-14T18:25:57.599Z,57.60
2019-02-14T18:28:24.670Z,57.70
2019-02-14T18:30:52.000Z,58.30
2019-02-14T18:33:20.603Z,58.20
2019-02-14T18:35:47.600Z,57.60
2019-02-14T18:38:14.597Z,57.70
2019-02-14T18:40:41.654Z,58.10
2019-02-14T18:43:08.589Z,57.80
2019-02-14T18:45:35.556Z,57.90
2019-02-14T18:48:02.571Z,59.40
2019-02-14T18:50:29.508Z,58.90
2019-02-14T18:52:56.486Z,59.30
2019-02-14T18:55:23.512Z,56.80
2019-02-14T18:57:50.494Z,56.50
2019-02-14T19:00:17.503Z,55.90
2019-02-14T19:02:44.495Z,55.30
2019-02-14T19:05:11.461Z,54.90
2019-02-14T19:07:38.417Z,55.10
2019-02-14T19:10:06.668Z,55.40
2019-02-14T19:12:33.625Z,55.60
2019-02-14T19:15:00.594Z,55.50
2019-02-14T19:17:27.608Z,55.60
2019-02-14T19:19:54.562Z,55.70
2019-02-14T19:22:21.526Z,55.50
2019-02-14T19:24:48.529Z,56.10
2019-02-14T19:27:15.489Z,56.60
2019-02-14T19:29:42.467Z,56.60
2019-02-14T19:32:09.447Z,56.90
2019-02-14T19:34:36.936Z,57.70
2019-02-14T19:37:03.928Z,56.50
2019-02-14T19:39:30.932Z,56.40
2019-02-14T19:41:58.104Z,56.30
2019-02-14T19:44:25.090Z,56.20
2019-02-14T19:46:52.029Z,56.50
2019-02-14T19:49:18.977Z,57.10
2019-02-14T19:51:45.924Z,57.90
2019-02-14T19:54:12.940Z,58.00
2019-02-14T19:56:39.881Z,58.80
2019-02-14T19:59:06.866Z,58.70
2019-02-14T20:01:33.823Z,58.80
2019-02-14T20:04:00.787Z,58.60
2019-02-14T20:06:28.709Z,58.30
2019-02-14T20:08:55.780Z,58.70
2019-02-14T20:11:22.951Z,58.00
2019-02-14T20:13:50.003Z,58.90
2019-02-14T20:16:17.013Z,59.20
2019-02-14T20:18:44.272Z,59.40
2019-02-14T20:21:11.228Z,59.50
2019-02-14T20:23:38.203Z,59.70
2019-02-14T20:26:05.232Z,59.90
2019-02-14T20:28:32.475Z,60.70
2019-02-14T20:30:59.469Z,60.70
2019-02-14T20:33:26.571Z,61.30
2019-02-14T20:35:55.401Z,61.90
2019-02-14T20:38:22.982Z,62.30
2019-02-14T20:40:49.948Z,62.20
2019-02-14T20:43:16.945Z,61.70
2019-02-14T20:45:44.249Z,63.70
2019-02-14T20:48:11.462Z,62.30
2019-02-14T20:50:38.268Z,62.20
2019-02-14T20:53:05.313Z,62.40
2019-02-14T20:55:32.484Z,63.00
2019-02-14T20:57:59.481Z,64.80
2019-02-14T21:00:28.255Z,66.20
2019-02-14T21:02:55.244Z,66.20
2019-02-14T21:05:22.210Z,66.80
2019-02-14T21:07:49.168Z,66.90
2019-02-14T21:10:16.359Z,66.80
2019-02-14T21:12:45.451Z,66.80
2019-02-14T21:15:12.763Z,66.70
2019-02-14T21:17:39.798Z,67.60
2019-02-14T21:20:07.625Z,68.50
2019-02-14T21:22:34.618Z,69.00
2019-02-14T21:25:01.731Z,70.00
2019-02-14T21:27:28.791Z,69.90
2019-02-14T21:29:55.774Z,70.00
2019-02-14T21:32:22.709Z,70.00
2019-02-14T21:34:49.705Z,69.40
2019-02-14T21:37:17.374Z,68.40
2019-02-14T21:39:59.816Z,67.60
2019-02-14T21:42:29.326Z,67.40
2019-02-14T21:44:54.414Z,67.50
2019-02-14T21:47:21.816Z,66.90
2019-02-14T21:49:49.080Z,67.50
2019-02-14T21:52:16.379Z,67.40
2019-02-14T21:54:43.473Z,67.70
2019-02-14T21:57:11.048Z,68.00
2019-02-14T21:59:38.062Z,69.00
2019-02-14T22:02:06.233Z,68.50
2019-02-14T22:04:32.259Z,69.10
2019-02-14T22:06:59.532Z,68.70
2019-02-14T22:09:26.716Z,68.60
2019-02-14T22:11:53.594Z,67.50
2019-02-14T22:14:20.640Z,68.30
2019-02-14T22:16:47.654Z,67.80
2019-02-14T22:19:14.672Z,69.50
2019-02-14T22:21:41.657Z,68.80
2019-02-14T22:24:08.713Z,69.10
2019-02-14T22:26:35.685Z,68.40
2019-02-14T22:29:02.785Z,68.50
2019-02-14T22:31:30.141Z,69.00
2019-02-14T22:33:57.196Z,68.50
2019-02-14T22:36:24.153Z,67.60
2019-02-14T22:38:52.673Z,69.50
2019-02-14T22:41:19.673Z,69.80
2019-02-14T22:43:46.613Z,69.80
2019-02-14T22:46:13.581Z,69.90
2019-02-14T22:48:40.537Z,70.10
2019-02-14T22:51:07.506Z,70.40
2019-02-14T22:53:34.528Z,70.20
2019-02-14T22:56:01.543Z,70.10
2019-02-14T22:58:28.503Z,70.60
2019-02-14T23:00:57.563Z,71.50
2019-02-14T23:03:24.527Z,70.90
2019-02-14T23:05:51.474Z,70.70
2019-02-14T23:08:18.442Z,70.70
2019-02-14T23:10:45.415Z,70.80
2019-02-14T23:13:12.359Z,70.80
2019-02-14T23:15:39.348Z,71.00
2019-02-14T23:18:06.328Z,71.40
2019-02-14T23:20:33.271Z,71.70
2019-02-14T23:23:00.257Z,71.80
2019-02-14T23:25:27.220Z,71.60
2019-02-14T23:27:54.161Z,72.60
2019-02-14T23:30:21.631Z,71.40
2019-02-14T23:32:48.596Z,71.70
2019-02-14T23:35:15.587Z,71.80
2019-02-14T23:37:42.865Z,72.40
2019-02-14T23:40:10.189Z,72.50
2019-02-14T23:42:37.156Z,73.20
2019-02-14T23:45:04.281Z,73.40
2019-02-14T23:47:31.281Z,74.30
2019-02-14T23:49:58.224Z,74.60
2019-02-14T23:52:25.484Z,74.90
2019-02-14T23:54:52.597Z,74.60
2019-02-14T23:57:19.915Z,74.20
2019-02-14T23:59:46.964Z,74.20
